Thunder radar more information blitzortung!


Radar de pluja more information rain snow radar


Visita la nostra xarxa de llocs de meteo:

Template documentation
and downloads

And another site



No particular awareness of the weather is required.    There are no Weather-warnings

Pagina Historial Weather Underground text

Diari Resum Juny 5, 2016 Unitats:  Mètric    Imperial   Tant
« Previous Dia
SegĂźent Dia »
Diari Setmana Mensual Anual Personalitzada
  Maxima: Minima: Media:
Temperatura: -17.8 °C -8.9 °C -5.6 °C
Punt de rosada: -17.8 °C -11.3 °C -10.8 °C
Humitat: Humidity % 38 % 57 %
Wind Speed: 0 km/h 0 km/h 10.3 km/h
RĂ fegues de vent: 0 km/h - -
Vent:- - SW
Pression baro: 0 hPa 34327.3 hPa -
Precipitacions: 0 mm    
Historical Graphs
 
 
Dades de taula per Juny 5, 2016
Temps Temperatura Punt de rosada Pression baro Vent Wind Speed RĂ fegues de vent Humitat Rainfall Rate (Hourly)
-17.8 °C -17.8 °C 0 hPa Calm     Humidity % 0 mm
00:00 -7.5 °C -11.2 °C 34395 hPa SSW 5.1 km/h 7.7 km/h 65 % 0 mm
00:05 -7.6 °C -11.3 °C 34395 hPa SSW 5.1 km/h 7.7 km/h 65 % 0 mm
00:10 -7.6 °C -11.3 °C 34395 hPa SSW 9 km/h 9 km/h 65 % 0 mm
07:50 -2.8 °C -10.4 °C 34496.6 hPa SW 7.7 km/h 20.8 km/h 43 % 0 mm
08:00 -2.7 °C -10.2 °C 34496.6 hPa SW 5.1 km/h 18.2 km/h 43 % 0 mm
08:20 -3 °C -10.8 °C 34462.7 hPa SW 2.6 km/h 25.9 km/h 42 % 0 mm
08:30 -2.9 °C -10.7 °C 34462.7 hPa SW 5.1 km/h 20.8 km/h 42 % 0 mm
08:40 -2.8 °C -10.6 °C 34428.8 hPa SW 7.7 km/h 31.1 km/h 42 % 0 mm
08:50 -3 °C -10.9 °C 34462.7 hPa SW 15.6 km/h 25.9 km/h 41 % 0 mm
09:00 -2.4 °C -10.4 °C 34462.7 hPa SSW 5.1 km/h 12.9 km/h 41 % 0 mm
09:10 -2.7 °C -11.1 °C 34428.8 hPa SSW 18.2 km/h 18.2 km/h 39 % 0 mm
09:20 -2.3 °C -10.5 °C 34395 hPa SW 7.7 km/h 18.2 km/h 40 % 0 mm
09:30 -2.6 °C -10.8 °C 34395 hPa SW 18.2 km/h 23.3 km/h 40 % 0 mm
09:40 -2.4 °C -10.9 °C 34395 hPa SW 12.9 km/h 25.9 km/h 39 % 0 mm
09:50 -2.6 °C -11 °C 34395 hPa SW 18.2 km/h 28.5 km/h 39 % 0 mm
10:00 -2.1 °C -10.3 °C 34395 hPa SW 2.6 km/h 20.8 km/h 40 % 0 mm
10:10 -2.3 °C -10.7 °C 34395 hPa SW 7.7 km/h 23.3 km/h 39 % 0 mm
10:30 -2.2 °C -10.9 °C 34395 hPa SW 7.7 km/h 12.9 km/h 38 % 0 mm
10:50 -2.1 °C -10.8 °C 34361.1 hPa SW 5.1 km/h 28.5 km/h 38 % 0 mm
11:00 -1.8 °C -10.6 °C 34361.1 hPa SW 7.7 km/h 25.9 km/h 38 % 0 mm
11:10 -2.3 °C -10.9 °C 34361.1 hPa SW 12.9 km/h 25.9 km/h 38 % 0 mm
11:20 -2.6 °C -11.2 °C 34361.1 hPa SW 7.7 km/h 33.6 km/h 38 % 0 mm
11:30 -2.2 °C -10.9 °C 34361.1 hPa SW 7.7 km/h 20.8 km/h 38 % 0 mm
11:40 -2.2 °C -10.9 °C 34361.1 hPa SSW 18.2 km/h 20.8 km/h 38 % 0 mm
11:50 -2 °C -10.7 °C 34361.1 hPa SW 5.1 km/h 25.9 km/h 38 % 0 mm
12:00 -2.2 °C -10.9 °C 34361.1 hPa SW 15.6 km/h 25.9 km/h 38 % 0 mm
12:10 -2.5 °C -11.2 °C 34327.3 hPa SW 15.6 km/h 20.8 km/h 38 % 0 mm
12:20 -2.6 °C -11 °C 34327.3 hPa SW 15.6 km/h 15.6 km/h 39 % 0 mm
12:30 -2.8 °C -11.2 °C 34327.3 hPa SW 20.8 km/h 28.5 km/h 39 % 0 mm
12:40 -2.7 °C -10.9 °C 34327.3 hPa SW 18.2 km/h 20.8 km/h 40 % 0 mm
12:50 -2.8 °C -11 °C 34327.3 hPa WSW 12.9 km/h 15.6 km/h 40 % 0 mm
13:00 -2.9 °C -10.7 °C 34327.3 hPa WSW 12.9 km/h 28.5 km/h 42 % 0 mm
13:10 -3.1 °C -10.9 °C 34327.3 hPa SW 15.6 km/h 25.9 km/h 42 % 0 mm
18:18 -3.3 °C -10.8 °C 34327.3 hPa SSW 29.8 km/h 29.8 km/h 43 % 0 mm
18:23 -3.2 °C -10.8 °C 34327.3 hPa SSE 20.3 km/h 20.3 km/h 43 % 0 mm
18:28 -3.3 °C -10.9 °C 34327.3 hPa West 20.9 km/h 20.9 km/h 43 % 0 mm
18:33 -3.3 °C -10.7 °C 34327.3 hPa SSW 17.9 km/h 17.9 km/h 44 % 0 mm
18:38 -3.3 °C -10.6 °C 34327.3 hPa SW 17.9 km/h 17.9 km/h 44 % 0 mm
18:43 -3.4 °C -10.8 °C 34327.3 hPa West 35.7 km/h 35.7 km/h 44 % 0 mm
18:48 -3.6 °C -10.9 °C 34327.3 hPa SW 17.9 km/h 17.9 km/h 44 % 0 mm
18:53 -3.7 °C -10.8 °C 34327.3 hPa SW 25.9 km/h 25.9 km/h 45 % 0 mm
19:03 -3.9 °C -11 °C 34327.3 hPa SSW 26.9 km/h 26.9 km/h 45 % 0 mm
19:08 -3.9 °C -10.8 °C 34327.3 hPa SSE 15 km/h 15 km/h 46 % 0 mm
19:13 -4.1 °C -11 °C 34327.3 hPa SSW 29.8 km/h 29.8 km/h 46 % 0 mm
19:18 -4.2 °C -10.9 °C 34327.3 hPa SSW 26.9 km/h 26.9 km/h 47 % 0 mm
19:20 -7.6 °C -10.3 °C 34496.6 hPa SW 2.6 km/h 5.1 km/h 73 % 0 mm
19:23 -4.2 °C -10.9 °C 34327.3 hPa SW 20.9 km/h 20.9 km/h 47 % 0 mm
19:28 -4.4 °C -10.9 °C 34327.3 hPa SW 15 km/h 15 km/h 48 % 0 mm
19:30 -7.6 °C -10.2 °C 34496.6 hPa SW 2.6 km/h 5.1 km/h 74 % 0 mm
19:33 -4.4 °C -10.9 °C 34327.3 hPa WSW 16.1 km/h 17.9 km/h 48 % 0 mm
19:38 -4.6 °C -10.9 °C 34327.3 hPa WSW 17.9 km/h 17.9 km/h 49 % 0 mm
19:40 -7.6 °C -10.2 °C 34462.7 hPa WSW 2.6 km/h 5.1 km/h 74 % 0 mm
19:43 -4.6 °C -10.9 °C 34327.3 hPa WSW 14.5 km/h 14.5 km/h 49 % 0 mm
19:48 -4.6 °C -10.9 °C 34327.3 hPa SSW 15 km/h 15 km/h 49 % 0 mm
19:50 -7.6 °C -10.2 °C 34462.7 hPa WSW 2.6 km/h 5.1 km/h 74 % 0 mm
19:53 -4.7 °C -11 °C 34327.3 hPa SW 26.9 km/h 26.9 km/h 49 % 0 mm
20:00 -7.7 °C -10.2 °C 34462.7 hPa WSW 2.6 km/h 5.1 km/h 75 % 0 mm
20:03 -4.9 °C -11 °C 34361.1 hPa South 20.9 km/h 20.9 km/h 50 % 0 mm
20:08 -4.9 °C -11 °C 34361.1 hPa WSW 19.2 km/h 19.2 km/h 50 % 0 mm
20:10 -7.7 °C -10.2 °C 34462.7 hPa Calm     75 % 0 mm
20:13 -5 °C -11.1 °C 34361.1 hPa SW 19.2 km/h 19.2 km/h 50 % 0 mm
20:18 -5.1 °C -10.9 °C 34361.1 hPa SW 23.8 km/h 23.8 km/h 52 % 0 mm
20:23 -5.2 °C -10.9 °C 34361.1 hPa SW 15.6 km/h 15.6 km/h 52 % 0 mm
20:30 -7.9 °C -10.3 °C 34462.7 hPa Calm   2.6 km/h 76 % 0 mm
20:33 -5.3 °C -10.9 °C 34361.1 hPa WSW 17.9 km/h 17.9 km/h 53 % 0 mm
20:38 -5.4 °C -11 °C 34361.1 hPa SSW 23.8 km/h 23.8 km/h 53 % 0 mm
20:40 -7.9 °C -10.3 °C 34462.7 hPa Calm     76 % 0 mm
20:43 -5.5 °C -10.9 °C 34361.1 hPa SW 15 km/h 15 km/h 54 % 0 mm
20:48 -5.6 °C -11 °C 34361.1 hPa WSW 9 km/h 9 km/h 54 % 0 mm
20:50 -8 °C -10.3 °C 34462.7 hPa Calm     77 % 0 mm
20:53 -5.7 °C -10.9 °C 34361.1 hPa WSW 9 km/h 9 km/h 55 % 0 mm
20:58 -5.8 °C -10.9 °C 34361.1 hPa SW 9 km/h 9 km/h 56 % 0 mm
21:00 -8 °C -10.3 °C 34462.7 hPa Calm   2.6 km/h 77 % 0 mm
21:03 -5.9 °C -10.9 °C 34395 hPa SSW 11.9 km/h 11.9 km/h 56 % 0 mm
21:09 -5.9 °C -10.9 °C 34395 hPa SW 20.9 km/h 20.9 km/h 57 % 0 mm
21:10 -8.1 °C -10.3 °C 34462.7 hPa Calm   2.6 km/h 77 % 0 mm
21:14 -6.1 °C -10.8 °C 34395 hPa SW 17.9 km/h 17.9 km/h 58 % 0 mm
21:19 -6.1 °C -10.7 °C 34395 hPa SW 15 km/h 15 km/h 59 % 0 mm
21:20 -8.2 °C -10.6 °C 34462.7 hPa South 2.6 km/h 2.6 km/h 76 % 0 mm
21:24 -6.2 °C -10.8 °C 34395 hPa SW 11.9 km/h 11.9 km/h 59 % 0 mm
21:29 -6.3 °C -10.8 °C 34395 hPa WSW 15.3 km/h 15.3 km/h 60 % 0 mm
21:30 -8.4 °C -10.6 °C 34462.7 hPa SW 2.6 km/h 5.1 km/h 78 % 0 mm
21:34 -6.4 °C -10.7 °C 34395 hPa SSW 19.6 km/h 19.6 km/h 61 % 0 mm
21:40 -8.4 °C -10.5 °C 34462.7 hPa Calm   2.6 km/h 79 % 0 mm
21:44 -6.6 °C -10.7 °C 34395 hPa WSW 20.9 km/h 20.9 km/h 62 % 0 mm
21:49 -6.6 °C -10.7 °C 34395 hPa WSW 11.9 km/h 11.9 km/h 63 % 0 mm
21:50 -8.4 °C -10.6 °C 34462.7 hPa SW 2.6 km/h 5.1 km/h 78 % 0 mm
21:54 -6.7 °C -10.6 °C 34395 hPa SSW 17.9 km/h 17.9 km/h 64 % 0 mm
21:59 -6.7 °C -10.5 °C 34395 hPa SW 11.1 km/h 11.1 km/h 65 % 0 mm
22:00 -8.6 °C -10.6 °C 34462.7 hPa Calm     79 % 0 mm
22:04 -6.8 °C -10.5 °C 34395 hPa SW 15 km/h 15 km/h 65 % 0 mm
22:09 -6.8 °C -10.4 °C 34395 hPa SW 9 km/h 9 km/h 66 % 0 mm
22:10 -8.6 °C -10.7 °C 34462.7 hPa SW 2.6 km/h 5.1 km/h 78 % 0 mm
22:19 -6.9 °C -10.5 °C 34428.8 hPa SW 15 km/h 15 km/h 66 % 0 mm
22:20 -8.6 °C -10.7 °C 34462.7 hPa SW 5.1 km/h 5.1 km/h 79 % 0 mm
22:24 -6.9 °C -10.4 °C 34428.8 hPa SW 4.2 km/h 7.6 km/h 67 % 0 mm
22:29 -6.9 °C -10.4 °C 34428.8 hPa West 3.7 km/h 8 km/h 67 % 0 mm
22:30 -8.6 °C -10.5 °C 34462.7 hPa Calm   2.6 km/h 80 % 0 mm
22:34 -7 °C -10.5 °C 34428.8 hPa SW 15 km/h 15 km/h 67 % 0 mm
22:39 -7.1 °C -10.4 °C 34428.8 hPa South 3.1 km/h 5.6 km/h 68 % 0 mm
22:40 -8.8 °C -10.8 °C 34462.7 hPa WSW 2.6 km/h 7.7 km/h 79 % 0 mm
22:49 -7.1 °C -10.4 °C 34462.7 hPa SW 6 km/h   68 % 0 mm
22:50 -8.8 °C -10.6 °C 34462.7 hPa Calm   5.1 km/h 81 % 0 mm
22:54 -7.2 °C -10.5 °C 34462.7 hPa Calm   4.2 km/h 68 % 0 mm
22:59 -7.2 °C -10.4 °C 34462.7 hPa SW 3.7 km/h 5.1 km/h 69 % 0 mm
23:00 -8.7 °C -10.4 °C 34462.7 hPa SSW 2.6 km/h 5.1 km/h 82 % 0 mm
23:04 -7.2 °C -10.4 °C 34496.6 hPa SSW 4.2 km/h 6.3 km/h 69 % 0 mm
23:09 -7.2 °C -10.4 °C 34496.6 hPa WSW 6 km/h 6 km/h 69 % 0 mm
23:10 -8.8 °C -10.5 °C 34462.7 hPa Calm     82 % 0 mm
23:14 -7.3 °C -10.3 °C 34496.6 hPa SW 6 km/h 6.8 km/h 71 % 0 mm
23:19 -7.3 °C -10.2 °C 34462.7 hPa SSW 3.1 km/h 7.6 km/h 72 % 0 mm
23:20 -8.8 °C -10.7 °C 34462.7 hPa Calm     81 % 0 mm
23:24 -7.3 °C -10.3 °C 34462.7 hPa WSW 6 km/h 6 km/h 71 % 0 mm
23:29 -7.4 °C -10.2 °C 34462.7 hPa Calm     72 % 0 mm
23:30 -8.9 °C -10.7 °C 34462.7 hPa Calm     81 % 0 mm
23:34 -7.4 °C -10.2 °C 34462.7 hPa WSW 3.1 km/h 3.1 km/h 72 % 0 mm
23:39 -7.4 °C -10.3 °C 34462.7 hPa SW 3.1 km/h   72 % 0 mm
23:40 -8.9 °C -10.6 °C 34462.7 hPa Calm     82 % 0 mm
23:49 -7.5 °C -10.4 °C 34462.7 hPa Calm     72 % 0 mm
23:50 -8.8 °C -10.7 °C 34462.7 hPa Calm   5.1 km/h 81 % 0 mm
23:54 -7.5 °C -10.4 °C 34462.7 hPa Calm     72 % 0 mm
Meteo Sesrovires
Elogis d' Weather Underground - 1.25 mb

Guio original per  Jim McMurry - jmcmurry@mwt.net Adaptat per a la plantilla per  Wim van der Kuil - Leuven-Template.eu

Trobareu la nostra informacio del temps tambe a:

Weather Underground

AWEKAS